Terminal Aerodrome Forecast
Issued by NWS

Home | Current Version | Previous Version | Text Only | Print | Product List | Glossary On
Versions: 1 2 3 4 5 6 7 8 9 10 11 12 13 14 15
000
FTUS46 KMTR 201734
TAFSNS
TAF
KSNS 201734Z 2018/2118 10008KT 4SM -RA BR FEW005 BKN030 OVC040
     FM201900 15028G38KT 3SM RA BR OVC012 WS015/20060KT
     FM210200 19025G30KT 2SM RA BKN015 OVC025 WS015/23050KT
     FM211000 19020G30KT 5SM SHRA BR OVC030=

USA.gov is the U.S. government's official web portal to all federal, state and local government web resources and services.